メインページ
METAR-TAF:

METAR-TAF

空港 :

フジャイラ国際空港

フジャイラ, アラブ首長国連邦

緯度: 25-06N, 経度: 056-20E, 海抜: 28m

現時点の気象観測

当レポートは58分前の17:00(UTC)に作成
西/北西の風 15kt
気温 25°C
湿度 54%
気圧 1016 hPa
視程10km以上
1,500メートル以下は雲なし、積乱雲なし

METAR: OMFJ 111700Z 29015KT CAVOK 25/15 Q1016 A3000

時間: 21:58 (17:58 UTC)

予報

当レポートは58分前の17:00(UTC)に作成
予報は11日の 18時(UTC)から 12日の 24時(UTC)まで有効
西/北西の風 12kt
視程: 8000m
確率 40%
11日の 18時(UTC)から 12日の 06時(UTC)まで
の風 16kt、最大30ktの突風を伴う
視程: 4000m
風塵
12日の 07時(UTC)から 12日の 09時(UTC)まで徐々に
の風 8kt

TAF: OMFJ 111700Z 1118/1224 29012KT 8000 NSC PROB40 1118/1206 09016G30KT 4000 BLDU BECMG 1207/1209 08008KT

4,000以上の空港の気象観測と天気予報(METAR報とTAF報)

利用可能な観測所は地図上に黄色い丸と赤い丸で示す。

丸の上にカーソルを重ねると観測所名を参照できる。

次にクリックすると気象観測と天気予報を参照できる。

マップの切り替え:黒色「×」印の緑ボタンをクリックして拡大、「-」印の緑ボタンをクリックして縮小、緑色の三角印をクリックして隣りの地図に切り替え


METAR-TAF: